sensor_id;sensor_type;location;lat;lon;timestamp;P1;durP1;ratioP1;P2;durP2;ratioP2
8478;SDS011;4276;49.354;6.804;2023-02-28T00:01:32;2.10;;;2.00;;
8478;SDS011;4276;49.354;6.804;2023-02-28T00:03:59;2.00;;;1.90;;
8478;SDS011;4276;49.354;6.804;2023-02-28T00:06:25;2.20;;;2.00;;
8478;SDS011;4276;49.354;6.804;2023-02-28T00:08:52;2.10;;;2.00;;
8478;SDS011;4276;49.354;6.804;2023-02-28T00:11:18;2.00;;;1.90;;
8478;SDS011;4276;49.354;6.804;2023-02-28T00:13:47;3.03;;;2.40;;
8478;SDS011;4276;49.354;6.804;2023-02-28T00:16:15;2.87;;;2.57;;
8478;SDS011;4276;49.354;6.804;2023-02-28T00:18:45;3.27;;;2.53;;
8478;SDS011;4276;49.354;6.804;2023-02-28T00:21:14;2.60;;;2.40;;
8478;SDS011;4276;49.354;6.804;2023-02-28T00:23:41;3.10;;;2.37;;
8478;SDS011;4276;49.354;6.804;2023-02-28T00:26:08;2.30;;;2.20;;
8478;SDS011;4276;49.354;6.804;2023-02-28T00:28:35;2.60;;;2.03;;
8478;SDS011;4276;49.354;6.804;2023-02-28T00:31:01;1.83;;;1.80;;
8478;SDS011;4276;49.354;6.804;2023-02-28T00:33:28;2.23;;;2.10;;
8478;SDS011;4276;49.354;6.804;2023-02-28T00:36:02;2.23;;;2.13;;
8478;SDS011;4276;49.354;6.804;2023-02-28T00:38:29;2.10;;;1.90;;
8478;SDS011;4276;49.354;6.804;2023-02-28T00:40:56;2.23;;;2.13;;
8478;SDS011;4276;49.354;6.804;2023-02-28T00:43:23;2.30;;;2.10;;
8478;SDS011;4276;49.354;6.804;2023-02-28T00:45:49;2.13;;;1.93;;
8478;SDS011;4276;49.354;6.804;2023-02-28T00:48:16;2.27;;;2.07;;
8478;SDS011;4276;49.354;6.804;2023-02-28T00:50:42;2.27;;;2.10;;
8478;SDS011;4276;49.354;6.804;2023-02-28T00:53:09;2.20;;;2.10;;
8478;SDS011;4276;49.354;6.804;2023-02-28T00:55:35;2.77;;;2.40;;
8478;SDS011;4276;49.354;6.804;2023-02-28T00:58:02;2.10;;;2.00;;
8478;SDS011;4276;49.354;6.804;2023-02-28T01:00:28;2.13;;;2.03;;
8478;SDS011;4276;49.354;6.804;2023-02-28T01:02:55;2.20;;;2.10;;
8478;SDS011;4276;49.354;6.804;2023-02-28T01:05:21;2.30;;;2.20;;
8478;SDS011;4276;49.354;6.804;2023-02-28T01:07:48;2.27;;;2.10;;
8478;SDS011;4276;49.354;6.804;2023-02-28T01:10:14;2.50;;;2.20;;
8478;SDS011;4276;49.354;6.804;2023-02-28T01:12:41;2.30;;;2.10;;
8478;SDS011;4276;49.354;6.804;2023-02-28T01:15:09;2.30;;;2.17;;
8478;SDS011;4276;49.354;6.804;2023-02-28T01:17:36;2.40;;;2.30;;
8478;SDS011;4276;49.354;6.804;2023-02-28T01:20:05;2.23;;;2.10;;
8478;SDS011;4276;49.354;6.804;2023-02-28T01:22:32;2.50;;;2.30;;
8478;SDS011;4276;49.354;6.804;2023-02-28T01:24:58;2.00;;;1.90;;
8478;SDS011;4276;49.354;6.804;2023-02-28T01:27:24;2.33;;;2.13;;
8478;SDS011;4276;49.354;6.804;2023-02-28T01:29:52;2.40;;;2.23;;
8478;SDS011;4276;49.354;6.804;2023-02-28T01:32:19;2.73;;;2.53;;
8478;SDS011;4276;49.354;6.804;2023-02-28T01:34:45;2.27;;;2.13;;
8478;SDS011;4276;49.354;6.804;2023-02-28T01:37:12;2.17;;;2.00;;
8478;SDS011;4276;49.354;6.804;2023-02-28T01:39:38;2.30;;;2.20;;
8478;SDS011;4276;49.354;6.804;2023-02-28T01:42:04;2.40;;;2.30;;
8478;SDS011;4276;49.354;6.804;2023-02-28T01:47:21;2.27;;;2.00;;
8478;SDS011;4276;49.354;6.804;2023-02-28T01:49:49;2.40;;;2.20;;
8478;SDS011;4276;49.354;6.804;2023-02-28T01:52:17;2.53;;;2.33;;
8478;SDS011;4276;49.354;6.804;2023-02-28T01:54:45;2.30;;;2.17;;
8478;SDS011;4276;49.354;6.804;2023-02-28T01:57:16;2.53;;;2.33;;
8478;SDS011;4276;49.354;6.804;2023-02-28T01:59:52;2.20;;;2.10;;
8478;SDS011;4276;49.354;6.804;2023-02-28T02:02:21;2.30;;;2.20;;
8478;SDS011;4276;49.354;6.804;2023-02-28T02:04:53;2.37;;;2.27;;
8478;SDS011;4276;49.354;6.804;2023-02-28T02:07:22;2.60;;;2.40;;
8478;SDS011;4276;49.354;6.804;2023-02-28T02:09:49;2.50;;;2.40;;
8478;SDS011;4276;49.354;6.804;2023-02-28T02:12:37;2.80;;;2.60;;
8478;SDS011;4276;49.354;6.804;2023-02-28T02:17:38;2.20;;;2.10;;
8478;SDS011;4276;49.354;6.804;2023-02-28T02:23:08;2.40;;;2.30;;
8478;SDS011;4276;49.354;6.804;2023-02-28T02:31:33;2.60;;;2.40;;
8478;SDS011;4276;49.354;6.804;2023-02-28T02:36:59;2.20;;;2.10;;
8478;SDS011;4276;49.354;6.804;2023-02-28T02:42:01;2.40;;;2.30;;
8478;SDS011;4276;49.354;6.804;2023-02-28T02:44:32;3.00;;;2.80;;
8478;SDS011;4276;49.354;6.804;2023-02-28T02:47:04;2.80;;;2.47;;
8478;SDS011;4276;49.354;6.804;2023-02-28T02:49:36;2.80;;;2.60;;
8478;SDS011;4276;49.354;6.804;2023-02-28T02:52:06;2.50;;;2.40;;
8478;SDS011;4276;49.354;6.804;2023-02-28T02:54:35;2.90;;;2.70;;
8478;SDS011;4276;49.354;6.804;2023-02-28T02:57:05;2.90;;;2.70;;
8478;SDS011;4276;49.354;6.804;2023-02-28T02:59:35;2.90;;;2.70;;
8478;SDS011;4276;49.354;6.804;2023-02-28T03:02:03;2.70;;;2.50;;
8478;SDS011;4276;49.354;6.804;2023-02-28T03:04:34;2.50;;;2.40;;
8478;SDS011;4276;49.354;6.804;2023-02-28T03:07:04;2.90;;;2.70;;
8478;SDS011;4276;49.354;6.804;2023-02-28T03:09:32;2.80;;;2.60;;
8478;SDS011;4276;49.354;6.804;2023-02-28T03:11:59;2.73;;;2.63;;
8478;SDS011;4276;49.354;6.804;2023-02-28T03:20:01;2.80;;;2.60;;
8478;SDS011;4276;49.354;6.804;2023-02-28T03:22:38;3.00;;;2.80;;
8478;SDS011;4276;49.354;6.804;2023-02-28T03:35:47;3.20;;;3.00;;
8478;SDS011;4276;49.354;6.804;2023-02-28T03:38:18;3.30;;;2.90;;
8478;SDS011;4276;49.354;6.804;2023-02-28T03:40:51;3.57;;;3.37;;
8478;SDS011;4276;49.354;6.804;2023-02-28T03:43:22;3.23;;;3.03;;
8478;SDS011;4276;49.354;6.804;2023-02-28T03:45:54;3.03;;;2.83;;
8478;SDS011;4276;49.354;6.804;2023-02-28T03:48:24;3.23;;;3.03;;
8478;SDS011;4276;49.354;6.804;2023-02-28T03:50:55;3.10;;;2.90;;
8478;SDS011;4276;49.354;6.804;2023-02-28T03:53:37;3.33;;;3.10;;
8478;SDS011;4276;49.354;6.804;2023-02-28T03:56:18;3.40;;;3.10;;
8478;SDS011;4276;49.354;6.804;2023-02-28T04:01:35;3.10;;;2.90;;
8478;SDS011;4276;49.354;6.804;2023-02-28T04:04:04;3.33;;;3.13;;
8478;SDS011;4276;49.354;6.804;2023-02-28T04:06:31;3.30;;;3.10;;
8478;SDS011;4276;49.354;6.804;2023-02-28T04:08:59;3.43;;;3.23;;
8478;SDS011;4276;49.354;6.804;2023-02-28T04:13:59;3.53;;;3.33;;
8478;SDS011;4276;49.354;6.804;2023-02-28T04:16:25;3.30;;;3.10;;
8478;SDS011;4276;49.354;6.804;2023-02-28T04:19:01;4.07;;;3.67;;
8478;SDS011;4276;49.354;6.804;2023-02-28T04:21:29;3.30;;;3.10;;
8478;SDS011;4276;49.354;6.804;2023-02-28T04:23:56;3.57;;;3.27;;
8478;SDS011;4276;49.354;6.804;2023-02-28T04:26:30;3.90;;;3.50;;
8478;SDS011;4276;49.354;6.804;2023-02-28T04:28:57;3.13;;;2.93;;
8478;SDS011;4276;49.354;6.804;2023-02-28T04:31:24;3.73;;;3.43;;
8478;SDS011;4276;49.354;6.804;2023-02-28T04:33:50;3.63;;;3.40;;
8478;SDS011;4276;49.354;6.804;2023-02-28T04:36:17;4.07;;;3.77;;
8478;SDS011;4276;49.354;6.804;2023-02-28T04:38:44;3.57;;;3.37;;
8478;SDS011;4276;49.354;6.804;2023-02-28T04:41:14;3.43;;;3.23;;
8478;SDS011;4276;49.354;6.804;2023-02-28T04:43:40;4.10;;;3.67;;
8478;SDS011;4276;49.354;6.804;2023-02-28T04:46:07;4.33;;;4.03;;
8478;SDS011;4276;49.354;6.804;2023-02-28T04:48:35;4.00;;;3.70;;
8478;SDS011;4276;49.354;6.804;2023-02-28T04:51:03;4.27;;;3.90;;
8478;SDS011;4276;49.354;6.804;2023-02-28T04:53:31;4.27;;;3.87;;
8478;SDS011;4276;49.354;6.804;2023-02-28T04:55:58;4.30;;;4.00;;
8478;SDS011;4276;49.354;6.804;2023-02-28T04:58:24;4.47;;;4.13;;
8478;SDS011;4276;49.354;6.804;2023-02-28T05:00:52;4.97;;;4.57;;
8478;SDS011;4276;49.354;6.804;2023-02-28T05:03:19;4.77;;;4.30;;
8478;SDS011;4276;49.354;6.804;2023-02-28T05:05:46;5.30;;;4.80;;
8478;SDS011;4276;49.354;6.804;2023-02-28T05:08:13;4.40;;;4.10;;
8478;SDS011;4276;49.354;6.804;2023-02-28T05:10:39;5.03;;;4.63;;
8478;SDS011;4276;49.354;6.804;2023-02-28T05:13:06;5.13;;;4.73;;
8478;SDS011;4276;49.354;6.804;2023-02-28T05:15:32;5.20;;;4.43;;
8478;SDS011;4276;49.354;6.804;2023-02-28T05:18:00;5.67;;;5.17;;
8478;SDS011;4276;49.354;6.804;2023-02-28T05:20:27;5.20;;;4.80;;
8478;SDS011;4276;49.354;6.804;2023-02-28T05:22:53;4.83;;;4.50;;
8478;SDS011;4276;49.354;6.804;2023-02-28T05:25:20;5.43;;;4.93;;
8478;SDS011;4276;49.354;6.804;2023-02-28T05:27:48;4.90;;;4.60;;
8478;SDS011;4276;49.354;6.804;2023-02-28T05:30:15;5.50;;;5.10;;
8478;SDS011;4276;49.354;6.804;2023-02-28T05:32:41;5.70;;;4.97;;
8478;SDS011;4276;49.354;6.804;2023-02-28T05:35:11;5.90;;;5.30;;
8478;SDS011;4276;49.354;6.804;2023-02-28T05:37:38;5.30;;;4.90;;
8478;SDS011;4276;49.354;6.804;2023-02-28T05:40:07;5.30;;;4.97;;
8478;SDS011;4276;49.354;6.804;2023-02-28T05:42:37;5.20;;;4.80;;
8478;SDS011;4276;49.354;6.804;2023-02-28T05:45:04;5.57;;;5.07;;
8478;SDS011;4276;49.354;6.804;2023-02-28T05:47:33;5.53;;;5.13;;
8478;SDS011;4276;49.354;6.804;2023-02-28T05:49:59;5.80;;;5.30;;
8478;SDS011;4276;49.354;6.804;2023-02-28T05:52:26;5.20;;;4.90;;
8478;SDS011;4276;49.354;6.804;2023-02-28T05:54:53;5.20;;;4.80;;
8478;SDS011;4276;49.354;6.804;2023-02-28T05:57:20;6.00;;;5.50;;
8478;SDS011;4276;49.354;6.804;2023-02-28T05:59:50;5.47;;;5.07;;
8478;SDS011;4276;49.354;6.804;2023-02-28T06:02:17;6.00;;;5.50;;
8478;SDS011;4276;49.354;6.804;2023-02-28T06:04:43;5.60;;;5.10;;
8478;SDS011;4276;49.354;6.804;2023-02-28T06:07:10;5.60;;;5.10;;
8478;SDS011;4276;49.354;6.804;2023-02-28T06:09:37;6.03;;;5.30;;
8478;SDS011;4276;49.354;6.804;2023-02-28T06:12:04;6.00;;;5.50;;
8478;SDS011;4276;49.354;6.804;2023-02-28T06:14:33;5.50;;;5.10;;
8478;SDS011;4276;49.354;6.804;2023-02-28T06:17:00;6.30;;;5.80;;
8478;SDS011;4276;49.354;6.804;2023-02-28T06:19:28;5.50;;;5.03;;
8478;SDS011;4276;49.354;6.804;2023-02-28T06:21:56;6.07;;;5.67;;
8478;SDS011;4276;49.354;6.804;2023-02-28T06:24:23;5.33;;;4.93;;
8478;SDS011;4276;49.354;6.804;2023-02-28T06:26:50;6.10;;;5.50;;
8478;SDS011;4276;49.354;6.804;2023-02-28T06:29:19;5.40;;;4.97;;
8478;SDS011;4276;49.354;6.804;2023-02-28T06:31:45;5.93;;;5.43;;
8478;SDS011;4276;49.354;6.804;2023-02-28T06:34:13;5.57;;;5.13;;
8478;SDS011;4276;49.354;6.804;2023-02-28T06:36:40;6.27;;;5.63;;
8478;SDS011;4276;49.354;6.804;2023-02-28T06:39:07;5.57;;;5.17;;
8478;SDS011;4276;49.354;6.804;2023-02-28T06:41:35;6.13;;;5.63;;
8478;SDS011;4276;49.354;6.804;2023-02-28T06:44:20;5.43;;;5.03;;
8478;SDS011;4276;49.354;6.804;2023-02-28T06:46:47;5.80;;;5.40;;
8478;SDS011;4276;49.354;6.804;2023-02-28T06:49:14;5.50;;;5.10;;
8478;SDS011;4276;49.354;6.804;2023-02-28T06:51:43;5.70;;;5.30;;
8478;SDS011;4276;49.354;6.804;2023-02-28T06:54:13;5.90;;;5.50;;
8478;SDS011;4276;49.354;6.804;2023-02-28T06:56:39;5.63;;;5.23;;
8478;SDS011;4276;49.354;6.804;2023-02-28T06:59:06;5.73;;;5.27;;
8478;SDS011;4276;49.354;6.804;2023-02-28T07:01:32;5.97;;;5.47;;
8478;SDS011;4276;49.354;6.804;2023-02-28T07:03:59;5.67;;;5.17;;
8478;SDS011;4276;49.354;6.804;2023-02-28T07:06:26;5.90;;;5.33;;
8478;SDS011;4276;49.354;6.804;2023-02-28T07:08:53;6.00;;;5.60;;
8478;SDS011;4276;49.354;6.804;2023-02-28T07:11:21;5.60;;;5.20;;
8478;SDS011;4276;49.354;6.804;2023-02-28T07:13:49;6.07;;;5.57;;
8478;SDS011;4276;49.354;6.804;2023-02-28T07:16:17;6.27;;;5.70;;
8478;SDS011;4276;49.354;6.804;2023-02-28T07:18:43;6.00;;;5.53;;
8478;SDS011;4276;49.354;6.804;2023-02-28T07:21:10;5.70;;;5.27;;
8478;SDS011;4276;49.354;6.804;2023-02-28T07:23:37;5.10;;;4.80;;
8478;SDS011;4276;49.354;6.804;2023-02-28T07:26:05;5.40;;;5.00;;
8478;SDS011;4276;49.354;6.804;2023-02-28T07:28:32;5.40;;;4.90;;
8478;SDS011;4276;49.354;6.804;2023-02-28T07:31:08;5.83;;;5.43;;
8478;SDS011;4276;49.354;6.804;2023-02-28T07:33:36;5.67;;;5.27;;
8478;SDS011;4276;49.354;6.804;2023-02-28T07:36:03;5.00;;;4.60;;
8478;SDS011;4276;49.354;6.804;2023-02-28T07:38:33;5.40;;;5.00;;
8478;SDS011;4276;49.354;6.804;2023-02-28T07:41:00;5.90;;;5.30;;
8478;SDS011;4276;49.354;6.804;2023-02-28T07:43:30;5.60;;;4.73;;
8478;SDS011;4276;49.354;6.804;2023-02-28T07:46:01;5.00;;;4.60;;
8478;SDS011;4276;49.354;6.804;2023-02-28T07:48:29;5.83;;;5.20;;
8478;SDS011;4276;49.354;6.804;2023-02-28T07:50:56;5.70;;;5.13;;
8478;SDS011;4276;49.354;6.804;2023-02-28T07:53:23;5.27;;;4.80;;
8478;SDS011;4276;49.354;6.804;2023-02-28T07:55:49;5.40;;;5.00;;
8478;SDS011;4276;49.354;6.804;2023-02-28T07:58:16;5.17;;;4.70;;
8478;SDS011;4276;49.354;6.804;2023-02-28T08:00:42;5.63;;;5.20;;
8478;SDS011;4276;49.354;6.804;2023-02-28T08:03:11;5.20;;;4.80;;
8478;SDS011;4276;49.354;6.804;2023-02-28T08:05:39;5.17;;;4.77;;
8478;SDS011;4276;49.354;6.804;2023-02-28T08:08:06;5.03;;;4.63;;
8478;SDS011;4276;49.354;6.804;2023-02-28T08:10:33;4.83;;;4.53;;
8478;SDS011;4276;49.354;6.804;2023-02-28T08:13:00;4.87;;;4.47;;
8478;SDS011;4276;49.354;6.804;2023-02-28T08:15:26;4.93;;;4.53;;
8478;SDS011;4276;49.354;6.804;2023-02-28T08:17:53;5.30;;;4.67;;
8478;SDS011;4276;49.354;6.804;2023-02-28T08:20:22;5.00;;;4.60;;
8478;SDS011;4276;49.354;6.804;2023-02-28T08:22:49;4.83;;;4.53;;
8478;SDS011;4276;49.354;6.804;2023-02-28T08:25:16;4.57;;;4.17;;
8478;SDS011;4276;49.354;6.804;2023-02-28T08:27:43;5.13;;;4.63;;
8478;SDS011;4276;49.354;6.804;2023-02-28T08:30:10;4.83;;;4.43;;
8478;SDS011;4276;49.354;6.804;2023-02-28T08:32:38;4.70;;;4.30;;
8478;SDS011;4276;49.354;6.804;2023-02-28T08:35:05;4.60;;;4.30;;
8478;SDS011;4276;49.354;6.804;2023-02-28T08:37:32;4.80;;;4.40;;
8478;SDS011;4276;49.354;6.804;2023-02-28T08:39:59;4.90;;;4.50;;
8478;SDS011;4276;49.354;6.804;2023-02-28T08:42:25;4.97;;;4.57;;
8478;SDS011;4276;49.354;6.804;2023-02-28T08:44:52;5.10;;;4.70;;
8478;SDS011;4276;49.354;6.804;2023-02-28T08:47:18;4.70;;;4.30;;
8478;SDS011;4276;49.354;6.804;2023-02-28T08:49:45;4.97;;;4.53;;
8478;SDS011;4276;49.354;6.804;2023-02-28T08:52:12;5.40;;;4.90;;
8478;SDS011;4276;49.354;6.804;2023-02-28T08:54:39;4.80;;;4.40;;
8478;SDS011;4276;49.354;6.804;2023-02-28T08:57:05;5.40;;;4.70;;
8478;SDS011;4276;49.354;6.804;2023-02-28T08:59:31;4.97;;;4.57;;
8478;SDS011;4276;49.354;6.804;2023-02-28T09:01:58;5.13;;;4.63;;
8478;SDS011;4276;49.354;6.804;2023-02-28T09:04:24;5.10;;;4.67;;
8478;SDS011;4276;49.354;6.804;2023-02-28T09:06:51;4.90;;;4.60;;
8478;SDS011;4276;49.354;6.804;2023-02-28T09:09:18;5.83;;;5.23;;
8478;SDS011;4276;49.354;6.804;2023-02-28T09:11:44;5.40;;;4.90;;
8478;SDS011;4276;49.354;6.804;2023-02-28T09:14:11;4.73;;;4.30;;
8478;SDS011;4276;49.354;6.804;2023-02-28T09:16:37;4.90;;;4.50;;
8478;SDS011;4276;49.354;6.804;2023-02-28T09:19:04;4.57;;;4.23;;
8478;SDS011;4276;49.354;6.804;2023-02-28T09:21:30;4.70;;;4.33;;
8478;SDS011;4276;49.354;6.804;2023-02-28T09:23:57;4.80;;;4.50;;
8478;SDS011;4276;49.354;6.804;2023-02-28T09:26:24;4.90;;;4.50;;
8478;SDS011;4276;49.354;6.804;2023-02-28T09:29:03;5.17;;;4.77;;
8478;SDS011;4276;49.354;6.804;2023-02-28T09:31:30;5.00;;;4.60;;
8478;SDS011;4276;49.354;6.804;2023-02-28T09:33:57;5.00;;;4.60;;
8478;SDS011;4276;49.354;6.804;2023-02-28T09:36:25;4.77;;;4.40;;
8478;SDS011;4276;49.354;6.804;2023-02-28T09:39:09;5.30;;;4.80;;
8478;SDS011;4276;49.354;6.804;2023-02-28T09:41:40;5.47;;;4.50;;
8478;SDS011;4276;49.354;6.804;2023-02-28T09:44:36;5.63;;;5.13;;
8478;SDS011;4276;49.354;6.804;2023-02-28T09:47:45;5.20;;;4.80;;
8478;SDS011;4276;49.354;6.804;2023-02-28T09:50:06;4.63;;;4.23;;
8478;SDS011;4276;49.354;6.804;2023-02-28T09:52:38;4.27;;;3.97;;
8478;SDS011;4276;49.354;6.804;2023-02-28T09:55:17;5.00;;;4.50;;
8478;SDS011;4276;49.354;6.804;2023-02-28T09:57:45;4.60;;;4.20;;
8478;SDS011;4276;49.354;6.804;2023-02-28T10:02:52;4.88;;;4.47;;
8478;SDS011;4276;49.354;6.804;2023-02-28T10:05:28;5.17;;;4.67;;
8478;SDS011;4276;49.354;6.804;2023-02-28T10:08:03;4.47;;;4.18;;
8478;SDS011;4276;49.354;6.804;2023-02-28T10:10:41;4.80;;;4.40;;
8478;SDS011;4276;49.354;6.804;2023-02-28T10:15:58;5.20;;;4.80;;
8478;SDS011;4276;49.354;6.804;2023-02-28T10:18:28;4.90;;;4.60;;
8478;SDS011;4276;49.354;6.804;2023-02-28T10:21:01;4.57;;;4.18;;
8478;SDS011;4276;49.354;6.804;2023-02-28T10:23:31;4.30;;;4.00;;
8478;SDS011;4276;49.354;6.804;2023-02-28T10:26:22;4.80;;;4.40;;
8478;SDS011;4276;49.354;6.804;2023-02-28T10:28:48;4.83;;;4.43;;
8478;SDS011;4276;49.354;6.804;2023-02-28T10:31:15;4.93;;;4.45;;
8478;SDS011;4276;49.354;6.804;2023-02-28T10:33:44;4.80;;;4.40;;
8478;SDS011;4276;49.354;6.804;2023-02-28T10:36:15;4.95;;;4.57;;
8478;SDS011;4276;49.354;6.804;2023-02-28T10:38:44;4.65;;;4.30;;
8478;SDS011;4276;49.354;6.804;2023-02-28T10:41:13;5.47;;;4.97;;
8478;SDS011;4276;49.354;6.804;2023-02-28T10:43:42;4.90;;;4.50;;
8478;SDS011;4276;49.354;6.804;2023-02-28T10:48:37;4.95;;;4.55;;
8478;SDS011;4276;49.354;6.804;2023-02-28T10:51:09;4.70;;;4.30;;
8478;SDS011;4276;49.354;6.804;2023-02-28T10:53:38;4.53;;;4.22;;
8478;SDS011;4276;49.354;6.804;2023-02-28T10:56:25;5.30;;;4.80;;
8478;SDS011;4276;49.354;6.804;2023-02-28T11:03:58;4.90;;;4.50;;
8478;SDS011;4276;49.354;6.804;2023-02-28T11:06:26;4.60;;;4.20;;
8478;SDS011;4276;49.354;6.804;2023-02-28T11:08:57;4.68;;;4.38;;
8478;SDS011;4276;49.354;6.804;2023-02-28T11:11:26;4.40;;;4.10;;
8478;SDS011;4276;49.354;6.804;2023-02-28T11:14:03;4.90;;;4.50;;
8478;SDS011;4276;49.354;6.804;2023-02-28T11:16:34;5.13;;;4.72;;
8478;SDS011;4276;49.354;6.804;2023-02-28T11:19:03;5.25;;;4.85;;
8478;SDS011;4276;49.354;6.804;2023-02-28T11:21:35;5.10;;;4.70;;
8478;SDS011;4276;49.354;6.804;2023-02-28T11:26:46;4.90;;;4.50;;
8478;SDS011;4276;49.354;6.804;2023-02-28T11:32:07;4.88;;;4.47;;
8478;SDS011;4276;49.354;6.804;2023-02-28T11:34:40;5.05;;;4.53;;
8478;SDS011;4276;49.354;6.804;2023-02-28T11:37:25;5.38;;;4.97;;
8478;SDS011;4276;49.354;6.804;2023-02-28T11:39:54;5.40;;;4.93;;
8478;SDS011;4276;49.354;6.804;2023-02-28T11:42:23;4.93;;;4.53;;
8478;SDS011;4276;49.354;6.804;2023-02-28T11:45:38;5.15;;;4.65;;
8478;SDS011;4276;49.354;6.804;2023-02-28T11:48:18;5.18;;;4.78;;
8478;SDS011;4276;49.354;6.804;2023-02-28T11:50:52;4.80;;;4.40;;
8478;SDS011;4276;49.354;6.804;2023-02-28T11:56:32;5.07;;;4.68;;
8478;SDS011;4276;49.354;6.804;2023-02-28T12:07:58;5.50;;;5.10;;
8478;SDS011;4276;49.354;6.804;2023-02-28T12:13:26;5.40;;;5.00;;
8478;SDS011;4276;49.354;6.804;2023-02-28T12:19:18;5.57;;;5.15;;
8478;SDS011;4276;49.354;6.804;2023-02-28T12:27:37;5.68;;;5.18;;
8478;SDS011;4276;49.354;6.804;2023-02-28T12:30:21;5.10;;;4.70;;
8478;SDS011;4276;49.354;6.804;2023-02-28T12:33:00;5.75;;;5.30;;
8478;SDS011;4276;49.354;6.804;2023-02-28T12:35:37;6.00;;;5.50;;
8478;SDS011;4276;49.354;6.804;2023-02-28T12:38:11;5.95;;;5.47;;
8478;SDS011;4276;49.354;6.804;2023-02-28T12:41:13;6.28;;;5.78;;
8478;SDS011;4276;49.354;6.804;2023-02-28T12:43:36;7.10;;;5.72;;
8478;SDS011;4276;49.354;6.804;2023-02-28T12:46:10;5.97;;;5.47;;
8478;SDS011;4276;49.354;6.804;2023-02-28T12:48:48;6.32;;;5.68;;
8478;SDS011;4276;49.354;6.804;2023-02-28T12:51:16;5.90;;;5.40;;
8478;SDS011;4276;49.354;6.804;2023-02-28T12:53:48;5.93;;;5.43;;
8478;SDS011;4276;49.354;6.804;2023-02-28T12:56:43;5.72;;;5.22;;
8478;SDS011;4276;49.354;6.804;2023-02-28T13:10:47;6.45;;;5.80;;
8478;SDS011;4276;49.354;6.804;2023-02-28T13:13:26;6.20;;;5.70;;
8478;SDS011;4276;49.354;6.804;2023-02-28T13:18:32;6.60;;;6.00;;
8478;SDS011;4276;49.354;6.804;2023-02-28T13:20:59;6.53;;;5.97;;
8478;SDS011;4276;49.354;6.804;2023-02-28T13:23:37;6.55;;;6.05;;
8478;SDS011;4276;49.354;6.804;2023-02-28T13:26:06;6.43;;;5.93;;
8478;SDS011;4276;49.354;6.804;2023-02-28T13:31:15;7.00;;;6.45;;
8478;SDS011;4276;49.354;6.804;2023-02-28T13:38:43;7.25;;;6.53;;
8478;SDS011;4276;49.354;6.804;2023-02-28T13:46:26;6.97;;;6.38;;
8478;SDS011;4276;49.354;6.804;2023-02-28T13:48:53;6.40;;;5.75;;
8478;SDS011;4276;49.354;6.804;2023-02-28T13:57:03;6.43;;;5.93;;
8478;SDS011;4276;49.354;6.804;2023-02-28T14:02:32;6.68;;;6.13;;
8478;SDS011;4276;49.354;6.804;2023-02-28T14:05:15;6.45;;;5.85;;
8478;SDS011;4276;49.354;6.804;2023-02-28T14:07:47;6.55;;;6.00;;
8478;SDS011;4276;49.354;6.804;2023-02-28T14:10:31;6.40;;;5.80;;
8478;SDS011;4276;49.354;6.804;2023-02-28T14:13:11;7.10;;;6.50;;
8478;SDS011;4276;49.354;6.804;2023-02-28T14:16:00;7.70;;;7.10;;
8478;SDS011;4276;49.354;6.804;2023-02-28T14:18:34;7.22;;;6.53;;
8478;SDS011;4276;49.354;6.804;2023-02-28T14:26:31;7.32;;;6.72;;
8478;SDS011;4276;49.354;6.804;2023-02-28T14:34:36;6.93;;;6.32;;
8478;SDS011;4276;49.354;6.804;2023-02-28T14:37:03;6.90;;;6.30;;
8478;SDS011;4276;49.354;6.804;2023-02-28T14:39:30;6.85;;;6.32;;
8478;SDS011;4276;49.354;6.804;2023-02-28T14:41:58;7.32;;;6.72;;
8478;SDS011;4276;49.354;6.804;2023-02-28T14:44:29;7.57;;;6.88;;
8478;SDS011;4276;49.354;6.804;2023-02-28T14:49:27;7.70;;;6.57;;
8478;SDS011;4276;49.354;6.804;2023-02-28T14:52:02;7.15;;;6.65;;
8478;SDS011;4276;49.354;6.804;2023-02-28T14:54:29;6.90;;;6.30;;
8478;SDS011;4276;49.354;6.804;2023-02-28T14:56:56;7.28;;;6.70;;
8478;SDS011;4276;49.354;6.804;2023-02-28T14:59:24;6.75;;;6.25;;
8478;SDS011;4276;49.354;6.804;2023-02-28T15:04:40;7.47;;;6.78;;
8478;SDS011;4276;49.354;6.804;2023-02-28T15:07:09;7.20;;;6.60;;
8478;SDS011;4276;49.354;6.804;2023-02-28T15:09:36;6.93;;;6.32;;
8478;SDS011;4276;49.354;6.804;2023-02-28T15:12:03;6.88;;;6.35;;
8478;SDS011;4276;49.354;6.804;2023-02-28T15:14:29;8.00;;;7.05;;
8478;SDS011;4276;49.354;6.804;2023-02-28T15:16:59;7.05;;;6.47;;
8478;SDS011;4276;49.354;6.804;2023-02-28T15:19:36;7.50;;;6.90;;
8478;SDS011;4276;49.354;6.804;2023-02-28T15:22:15;6.82;;;6.32;;
8478;SDS011;4276;49.354;6.804;2023-02-28T15:24:45;7.45;;;6.75;;
8478;SDS011;4276;49.354;6.804;2023-02-28T15:27:20;6.85;;;6.32;;
8478;SDS011;4276;49.354;6.804;2023-02-28T15:29:56;6.88;;;6.18;;
8478;SDS011;4276;49.354;6.804;2023-02-28T15:34:56;7.80;;;7.13;;
8478;SDS011;4276;49.354;6.804;2023-02-28T15:37:40;6.80;;;6.28;;
8478;SDS011;4276;49.354;6.804;2023-02-28T15:40:24;7.60;;;6.90;;
8478;SDS011;4276;49.354;6.804;2023-02-28T15:45:38;7.35;;;6.15;;
8478;SDS011;4276;49.354;6.804;2023-02-28T15:48:18;8.55;;;6.40;;
8478;SDS011;4276;49.354;6.804;2023-02-28T15:50:50;7.28;;;6.68;;
8478;SDS011;4276;49.354;6.804;2023-02-28T15:53:21;7.72;;;6.93;;
8478;SDS011;4276;49.354;6.804;2023-02-28T15:56:23;7.50;;;6.82;;
8478;SDS011;4276;49.354;6.804;2023-02-28T15:59:05;7.20;;;6.60;;
8478;SDS011;4276;49.354;6.804;2023-02-28T16:01:36;6.95;;;6.35;;
8478;SDS011;4276;49.354;6.804;2023-02-28T16:04:05;9.90;;;7.05;;
8478;SDS011;4276;49.354;6.804;2023-02-28T16:06:42;6.75;;;6.25;;
8478;SDS011;4276;49.354;6.804;2023-02-28T16:09:14;7.07;;;6.47;;
8478;SDS011;4276;49.354;6.804;2023-02-28T16:11:46;7.25;;;6.55;;
8478;SDS011;4276;49.354;6.804;2023-02-28T16:14:15;7.28;;;6.68;;
8478;SDS011;4276;49.354;6.804;2023-02-28T16:16:47;6.95;;;6.32;;
8478;SDS011;4276;49.354;6.804;2023-02-28T16:19:15;7.25;;;6.65;;
8478;SDS011;4276;49.354;6.804;2023-02-28T16:21:42;7.38;;;6.60;;
8478;SDS011;4276;49.354;6.804;2023-02-28T16:24:09;8.10;;;7.35;;
8478;SDS011;4276;49.354;6.804;2023-02-28T16:26:35;7.63;;;6.53;;
8478;SDS011;4276;49.354;6.804;2023-02-28T16:29:03;7.07;;;6.47;;
8478;SDS011;4276;49.354;6.804;2023-02-28T16:31:30;7.68;;;6.90;;
8478;SDS011;4276;49.354;6.804;2023-02-28T16:33:57;7.53;;;6.82;;
8478;SDS011;4276;49.354;6.804;2023-02-28T16:36:24;6.85;;;6.25;;
8478;SDS011;4276;49.354;6.804;2023-02-28T16:38:54;6.90;;;6.30;;
8478;SDS011;4276;49.354;6.804;2023-02-28T16:41:21;7.05;;;6.45;;
8478;SDS011;4276;49.354;6.804;2023-02-28T16:43:50;6.55;;;6.05;;
8478;SDS011;4276;49.354;6.804;2023-02-28T16:46:18;7.63;;;7.00;;
8478;SDS011;4276;49.354;6.804;2023-02-28T16:48:45;7.40;;;6.75;;
8478;SDS011;4276;49.354;6.804;2023-02-28T16:51:15;6.90;;;6.30;;
8478;SDS011;4276;49.354;6.804;2023-02-28T16:53:42;7.22;;;6.63;;
8478;SDS011;4276;49.354;6.804;2023-02-28T16:56:14;7.10;;;6.50;;
8478;SDS011;4276;49.354;6.804;2023-02-28T16:58:45;7.75;;;7.15;;
8478;SDS011;4276;49.354;6.804;2023-02-28T17:01:12;6.63;;;6.13;;
8478;SDS011;4276;49.354;6.804;2023-02-28T17:03:39;7.20;;;6.57;;
8478;SDS011;4276;49.354;6.804;2023-02-28T17:06:12;7.18;;;6.57;;
8478;SDS011;4276;49.354;6.804;2023-02-28T17:08:43;7.35;;;6.65;;
8478;SDS011;4276;49.354;6.804;2023-02-28T17:11:09;7.30;;;6.60;;
8478;SDS011;4276;49.354;6.804;2023-02-28T17:13:36;8.30;;;7.60;;
8478;SDS011;4276;49.354;6.804;2023-02-28T17:16:02;7.47;;;6.78;;
8478;SDS011;4276;49.354;6.804;2023-02-28T17:18:29;7.10;;;6.53;;
8478;SDS011;4276;49.354;6.804;2023-02-28T17:21:00;7.05;;;6.45;;
8478;SDS011;4276;49.354;6.804;2023-02-28T17:23:27;7.38;;;6.78;;
8478;SDS011;4276;49.354;6.804;2023-02-28T17:25:53;6.75;;;6.15;;
8478;SDS011;4276;49.354;6.804;2023-02-28T17:28:23;8.05;;;7.35;;
8478;SDS011;4276;49.354;6.804;2023-02-28T17:30:49;6.95;;;6.45;;
8478;SDS011;4276;49.354;6.804;2023-02-28T17:33:16;7.57;;;6.95;;
8478;SDS011;4276;49.354;6.804;2023-02-28T17:35:43;7.60;;;6.90;;
8478;SDS011;4276;49.354;6.804;2023-02-28T17:38:14;7.28;;;6.60;;
8478;SDS011;4276;49.354;6.804;2023-02-28T17:40:42;7.22;;;6.55;;
8478;SDS011;4276;49.354;6.804;2023-02-28T17:43:08;7.03;;;6.43;;
8478;SDS011;4276;49.354;6.804;2023-02-28T17:45:35;7.30;;;6.63;;
8478;SDS011;4276;49.354;6.804;2023-02-28T17:48:02;7.10;;;6.40;;
8478;SDS011;4276;49.354;6.804;2023-02-28T17:50:28;7.35;;;6.65;;
8478;SDS011;4276;49.354;6.804;2023-02-28T17:52:55;7.20;;;6.60;;